createdAt,value
2017-10-25T00:05:55.345Z,6.03
2017-10-25T00:15:25.053Z,5.44
2017-10-25T00:25:01.023Z,5.34
2017-10-25T00:34:36.779Z,5.05
2017-10-25T00:44:11.938Z,4.76
2017-10-25T00:53:47.781Z,4.66
2017-10-25T01:03:23.785Z,4.56
2017-10-25T01:12:59.531Z,4.27
2017-10-25T01:22:36.205Z,4.07
2017-10-25T01:32:12.239Z,3.97
2017-10-25T01:41:48.404Z,3.88
2017-10-25T01:51:24.823Z,3.88
2017-10-25T02:01:00.205Z,3.87
2017-10-25T02:10:37.435Z,3.68
2017-10-25T02:20:13.364Z,3.58
2017-10-25T02:29:49.199Z,3.48
2017-10-25T02:39:25.300Z,3.58
2017-10-25T02:49:01.382Z,3.48
2017-10-25T02:58:37.121Z,3.39
2017-10-25T03:08:13.633Z,3.39
2017-10-25T03:17:49.666Z,3.39
2017-10-25T03:27:30.993Z,3.19
2017-10-25T03:37:00.543Z,3.39
2017-10-25T03:46:37.569Z,3.19
2017-10-25T03:56:13.736Z,3.29
2017-10-25T04:05:50.049Z,3.19
2017-10-25T04:15:26.295Z,3.09
2017-10-25T04:25:03.043Z,3.19
2017-10-25T04:34:39.340Z,3.09
2017-10-25T04:44:15.215Z,3.29
2017-10-25T04:53:51.140Z,3.09
2017-10-25T05:03:27.576Z,2.99
2017-10-25T05:13:03.271Z,3.09
2017-10-25T05:22:40.296Z,3.09
2017-10-25T05:32:16.500Z,3.29
2017-10-25T05:41:52.945Z,3.48
2017-10-25T05:51:29.326Z,3.58
2017-10-25T06:01:05.936Z,3.68
2017-10-25T06:10:42.450Z,3.78
2017-10-25T06:20:19.275Z,4.37
2017-10-25T06:29:56.226Z,4.75
2017-10-25T06:39:33.321Z,5.34
2017-10-25T06:49:10.597Z,5.83
2017-10-25T06:58:47.221Z,6.32
2017-10-25T07:08:24.181Z,6.71
2017-10-25T07:18:01.123Z,7.10
2017-10-25T07:27:38.624Z,7.69
2017-10-25T07:37:15.377Z,8.18
2017-10-25T07:46:51.807Z,8.18
2017-10-25T07:56:28.042Z,8.18
2017-10-25T08:06:04.458Z,8.18
2017-10-25T08:15:41.544Z,8.86
2017-10-25T08:25:19.859Z,10.04
2017-10-25T08:34:57.696Z,10.72
2017-10-25T08:44:34.128Z,11.21
2017-10-25T08:54:11.208Z,11.50
2017-10-25T09:03:47.499Z,11.60
2017-10-25T09:13:24.047Z,11.89
2017-10-25T09:23:00.891Z,12.19
2017-10-25T09:32:36.599Z,12.38
2017-10-25T09:42:13.669Z,12.78
2017-10-25T09:51:50.204Z,12.68
2017-10-25T10:01:26.892Z,13.07
2017-10-25T10:11:03.025Z,13.17
2017-10-25T10:20:39.589Z,13.36
2017-10-25T10:30:18.166Z,13.85
2017-10-25T10:39:55.454Z,14.15
2017-10-25T10:49:31.994Z,16.88
2017-10-25T10:59:09.440Z,18.84
2017-10-25T11:08:47.440Z,18.25
2017-10-25T11:18:24.858Z,18.45
2017-10-25T11:28:01.923Z,17.37
2017-10-25T11:37:37.746Z,16.69
2017-10-25T11:57:54.310Z,16.69
2017-10-25T12:07:35.175Z,16.30
2017-10-25T12:17:06.422Z,16.49
2017-10-25T12:26:43.212Z,16.98
2017-10-25T12:36:20.512Z,16.39
2017-10-25T12:45:56.530Z,17.08
2017-10-25T12:55:34.674Z,16.88
2017-10-25T13:05:12.696Z,17.76
2017-10-25T13:14:50.935Z,17.86
2017-10-25T13:24:24.879Z,16.10
2017-10-25T13:33:59.216Z,15.51
2017-10-25T13:43:34.914Z,15.32
2017-10-25T13:53:11.804Z,15.42
2017-10-25T14:02:48.704Z,16.49
2017-10-25T14:12:23.918Z,15.02
2017-10-25T14:21:59.096Z,14.24
2017-10-25T14:31:34.518Z,14.05
2017-10-25T14:41:10.635Z,13.66
2017-10-25T14:50:50.648Z,13.56
2017-10-25T15:00:21.024Z,13.56
2017-10-25T15:09:56.403Z,13.36
2017-10-25T15:19:32.987Z,12.97
2017-10-25T15:29:08.445Z,12.29
2017-10-25T15:38:43.520Z,11.70
2017-10-25T15:48:18.726Z,11.11
2017-10-25T15:57:53.684Z,10.62
2017-10-25T16:07:28.526Z,10.04
2017-10-25T16:17:04.455Z,9.84
2017-10-25T16:26:45.233Z,9.55
2017-10-25T16:36:14.384Z,9.25
2017-10-25T16:45:50.128Z,9.06
2017-10-25T16:55:25.842Z,8.86
2017-10-25T17:05:01.533Z,8.57
2017-10-25T17:14:36.867Z,8.28
2017-10-25T17:24:12.756Z,7.98
2017-10-25T17:33:49.923Z,7.79
2017-10-25T17:43:25.816Z,7.59
2017-10-25T17:53:01.937Z,7.49
2017-10-25T18:02:37.841Z,7.30
2017-10-25T18:12:13.123Z,7.00
2017-10-25T18:21:49.219Z,6.91
2017-10-25T18:31:28.894Z,6.91
2017-10-25T18:40:59.024Z,6.61
2017-10-25T18:50:34.621Z,6.61
2017-10-25T19:00:10.424Z,6.52
2017-10-25T19:09:45.992Z,6.52
2017-10-25T19:19:22.808Z,6.52
2017-10-25T19:28:58.538Z,6.71
2017-10-25T19:38:34.117Z,6.42
2017-10-25T19:48:10.017Z,6.22
2017-10-25T19:57:45.912Z,6.22
2017-10-25T20:07:21.810Z,5.93
2017-10-25T20:16:58.110Z,5.83
2017-10-25T20:26:34.019Z,5.73
2017-10-25T20:36:10.307Z,5.83
2017-10-25T20:45:45.851Z,5.73
2017-10-25T20:55:22.138Z,5.54
2017-10-25T21:04:57.930Z,5.44
2017-10-25T21:14:33.709Z,5.34
2017-10-25T21:24:10.458Z,5.34
2017-10-25T21:33:46.962Z,5.34
2017-10-25T21:43:23.290Z,5.34
2017-10-25T21:52:59.276Z,5.24
2017-10-25T22:02:33.884Z,5.24
2017-10-25T22:12:15.676Z,5.34
2017-10-25T22:21:52.080Z,5.44
2017-10-25T22:31:28.508Z,5.34
2017-10-25T22:41:04.164Z,5.44
2017-10-25T22:50:40.558Z,5.34
2017-10-25T23:00:17.342Z,5.15
2017-10-25T23:09:53.547Z,5.15
2017-10-25T23:19:29.892Z,5.25
2017-10-25T23:29:06.007Z,5.15
2017-10-25T23:38:42.167Z,5.05
2017-10-25T23:48:17.979Z,5.05
2017-10-25T23:57:53.927Z,4.95
